Time;durP1;ratioP1;P1;durP2;ratioP2;P2;SDS_P1;SDS_P2;PMS_P1;PMS_P2;Temp;Humidity;BMP_temperature;BMP_pressure;BME280_temperature;BME280_humidity;BME280_pressure;Samples;Min_cycle;Max_cycle;Signal;HPM_P1;HPM_P2
2022/11/07 00:00:08;;;;;;;14.27;11.87;;;;;;;;;;5094871;28;20490;-64
2022/11/07 00:02:34;;;;;;;13.30;11.13;;;;;;;;;;5094841;28;20521;-64
2022/11/07 00:05:02;;;;;;;13.70;10.93;;;;;;;;;;5094879;28;20454;-64
2022/11/07 00:07:29;;;;;;;17.10;11.63;;;;;;;;;;5094858;28;20453;-64
2022/11/07 00:09:56;;;;;;;17.63;13.10;;;;;;;;;;5094783;28;20456;-64
2022/11/07 00:12:23;;;;;;;14.88;12.48;;;;;;;;;;5094694;28;20815;-64
2022/11/07 00:14:51;;;;;;;16.33;11.43;;;;;;;;;;5094327;28;20194;-65
2022/11/07 00:17:18;;;;;;;14.57;11.43;;;;;;;;;;5094597;28;20925;-64
2022/11/07 00:19:45;;;;;;;18.38;11.88;;;;;;;;;;5094563;28;20241;-65
2022/11/07 00:22:11;;;;;;;14.53;11.20;;;;;;;;;;5094489;28;20278;-64
2022/11/07 00:24:38;;;;;;;15.55;12.57;;;;;;;;;;5094402;28;20452;-64
2022/11/07 00:27:05;;;;;;;16.70;12.82;;;;;;;;;;5093339;28;20207;-64
2022/11/07 00:29:32;;;;;;;14.13;11.50;;;;;;;;;;5094199;28;20202;-64
2022/11/07 00:32:02;;;;;;;14.57;11.90;;;;;;;;;;5094414;28;20286;-65
2022/11/07 00:34:29;;;;;;;15.17;11.70;;;;;;;;;;5094416;28;20278;-64
2022/11/07 00:36:56;;;;;;;14.65;11.85;;;;;;;;;;5094171;28;20482;-64
2022/11/07 00:39:23;;;;;;;14.00;11.83;;;;;;;;;;5094068;28;20651;-64
2022/11/07 00:41:51;;;;;;;14.73;11.23;;;;;;;;;;5093974;28;20507;-65
2022/11/07 00:44:18;;;;;;;14.10;11.40;;;;;;;;;;5093954;28;20544;-64
2022/11/07 00:46:45;;;;;;;12.90;10.53;;;;;;;;;;5093929;28;20566;-64
2022/11/07 00:49:14;;;;;;;16.07;11.87;;;;;;;;;;5093977;28;20451;-64
2022/11/07 00:51:41;;;;;;;14.37;12.13;;;;;;;;;;5093965;28;20545;-64
2022/11/07 00:54:08;;;;;;;13.27;11.20;;;;;;;;;;5093768;28;20450;-64
2022/11/07 00:56:37;;;;;;;17.00;11.80;;;;;;;;;;5093691;28;20481;-65
2022/11/07 00:59:04;;;;;;;16.40;11.60;;;;;;;;;;5093929;28;20534;-65
2022/11/07 01:01:32;;;;;;;15.60;11.73;;;;;;;;;;5093859;28;20454;-64
2022/11/07 01:06:46;;;;;;;13.48;11.63;;;;;;;;;;5093756;28;20438;-64
2022/11/07 01:09:14;;;;;;;16.43;11.97;;;;;;;;;;5093449;28;20187;-64
2022/11/07 01:11:41;;;;;;;14.80;11.25;;;;;;;;;;5093677;28;20486;-64
2022/11/07 01:14:09;;;;;;;18.70;13.17;;;;;;;;;;5093688;28;20214;-64
2022/11/07 01:16:37;;;;;;;16.07;11.93;;;;;;;;;;5093488;28;20529;-64
2022/11/07 01:19:04;;;;;;;13.00;10.90;;;;;;;;;;5093466;28;20492;-64
2022/11/07 01:21:31;;;;;;;15.07;11.18;;;;;;;;;;5093274;28;20661;-64
2022/11/07 01:24:02;;;;;;;14.13;11.50;;;;;;;;;;5093527;28;20198;-64
2022/11/07 01:26:29;;;;;;;14.10;11.67;;;;;;;;;;5093467;28;20861;-64
2022/11/07 01:28:56;;;;;;;13.63;10.90;;;;;;;;;;5093354;28;20543;-64
2022/11/07 01:31:22;;;;;;;13.00;11.18;;;;;;;;;;5093270;28;20450;-64
2022/11/07 01:33:49;;;;;;;13.10;10.50;;;;;;;;;;5093138;28;20201;-64
2022/11/07 01:36:17;;;;;;;14.80;11.10;;;;;;;;;;5093019;28;20505;-64
2022/11/07 01:38:45;;;;;;;14.33;11.90;;;;;;;;;;5092952;28;20541;-64
2022/11/07 01:41:21;;;;;;;14.70;10.73;;;;;;;;;;5093025;28;21038;-64
2022/11/07 01:43:49;;;;;;;14.98;12.25;;;;;;;;;;5093188;28;20275;-64
2022/11/07 01:46:16;;;;;;;15.15;11.30;;;;;;;;;;5092982;28;20197;-64
2022/11/07 01:48:45;;;;;;;13.53;11.20;;;;;;;;;;5092884;28;20190;-64
2022/11/07 01:51:12;;;;;;;15.60;11.53;;;;;;;;;;5093096;28;20800;-64
2022/11/07 01:53:40;;;;;;;16.37;10.90;;;;;;;;;;5093010;28;20493;-64
2022/11/07 01:56:10;;;;;;;16.60;11.77;;;;;;;;;;5092885;28;20475;-64
2022/11/07 01:58:38;;;;;;;13.18;11.10;;;;;;;;;;5092980;28;20454;-64
2022/11/07 02:01:05;;;;;;;12.97;10.47;;;;;;;;;;5092804;28;20287;-64
2022/11/07 02:03:32;;;;;;;12.80;10.27;;;;;;;;;;5092766;28;20452;-64
2022/11/07 02:06:03;;;;;;;11.67;10.33;;;;;;;;;;5092720;28;20685;-64
2022/11/07 02:08:36;;;;;;;13.37;10.97;;;;;;;;;;5092958;28;20530;-64
2022/11/07 02:11:04;;;;;;;12.73;11.33;;;;;;;;;;5093247;28;20545;-64
2022/11/07 02:13:31;;;;;;;12.27;10.53;;;;;;;;;;5092730;28;20544;-65
2022/11/07 02:16:02;;;;;;;9.80;8.33;;;;;;;;;;5092552;28;20519;-64
2022/11/07 02:18:29;;;;;;;12.57;9.60;;;;;;;;;;5092885;28;20457;-64
2022/11/07 02:20:58;;;;;;;11.50;9.33;;;;;;;;;;5092774;28;20443;-64
2022/11/07 02:23:28;;;;;;;11.10;9.90;;;;;;;;;;5092730;28;20500;-64
2022/11/07 02:25:56;;;;;;;9.73;8.70;;;;;;;;;;5092632;28;20455;-64
2022/11/07 02:28:24;;;;;;;12.80;9.70;;;;;;;;;;5092462;28;20453;-64
2022/11/07 02:30:51;;;;;;;10.63;9.23;;;;;;;;;;5092693;28;20442;-65
2022/11/07 02:33:18;;;;;;;10.10;9.10;;;;;;;;;;5092724;28;20516;-64
2022/11/07 02:35:46;;;;;;;15.13;11.33;;;;;;;;;;5092554;28;20941;-64
2022/11/07 02:38:16;;;;;;;11.67;9.73;;;;;;;;;;5092521;28;20488;-64
2022/11/07 02:40:44;;;;;;;10.47;9.37;;;;;;;;;;5092418;28;20473;-64
2022/11/07 02:43:13;;;;;;;10.70;9.57;;;;;;;;;;5092666;28;20455;-64
2022/11/07 02:45:42;;;;;;;12.73;10.37;;;;;;;;;;5092515;28;20453;-64
2022/11/07 02:48:09;;;;;;;12.53;10.00;;;;;;;;;;5092276;28;20471;-64
2022/11/07 02:50:36;;;;;;;12.47;9.50;;;;;;;;;;5093709;28;20457;-64
2022/11/07 02:53:03;;;;;;;9.23;8.23;;;;;;;;;;5096637;28;20456;-64
2022/11/07 02:55:29;;;;;;;11.53;9.50;;;;;;;;;;5096134;28;20824;-64
2022/11/07 02:57:58;;;;;;;9.30;8.40;;;;;;;;;;5096113;28;20508;-64
2022/11/07 03:00:26;;;;;;;11.13;9.07;;;;;;;;;;5096131;28;20453;-64
2022/11/07 03:02:53;;;;;;;10.47;8.80;;;;;;;;;;5096111;28;20442;-64
2022/11/07 03:05:20;;;;;;;10.13;8.80;;;;;;;;;;5095966;28;20981;-64
2022/11/07 03:07:49;;;;;;;14.30;9.33;;;;;;;;;;5095910;28;20546;-65
2022/11/07 03:10:19;;;;;;;9.97;8.13;;;;;;;;;;5096010;28;20771;-64
2022/11/07 03:12:46;;;;;;;11.20;8.70;;;;;;;;;;5095937;28;20460;-64
2022/11/07 03:15:13;;;;;;;10.93;8.70;;;;;;;;;;5095746;28;20450;-64
2022/11/07 03:17:41;;;;;;;9.73;8.83;;;;;;;;;;5095642;28;20486;-64
2022/11/07 03:20:09;;;;;;;10.30;9.20;;;;;;;;;;5095605;28;20453;-64
2022/11/07 03:22:36;;;;;;;10.67;9.13;;;;;;;;;;5095476;28;20450;-65
2022/11/07 03:25:03;;;;;;;11.77;9.00;;;;;;;;;;5095688;28;20446;-64
2022/11/07 03:27:30;;;;;;;11.90;9.13;;;;;;;;;;5095812;28;20507;-64
2022/11/07 03:29:56;;;;;;;9.57;8.40;;;;;;;;;;5095546;28;20442;-64
2022/11/07 03:32:23;;;;;;;9.77;8.63;;;;;;;;;;5095481;28;20549;-64
2022/11/07 03:34:52;;;;;;;9.33;8.33;;;;;;;;;;5095349;28;20460;-64
2022/11/07 03:37:18;;;;;;;11.70;8.70;;;;;;;;;;5095443;28;20486;-64
2022/11/07 03:39:45;;;;;;;10.43;8.83;;;;;;;;;;5095374;28;20447;-64
2022/11/07 03:42:12;;;;;;;9.13;8.23;;;;;;;;;;5095312;28;20451;-64
2022/11/07 03:44:39;;;;;;;11.10;8.30;;;;;;;;;;5095247;28;20541;-64
2022/11/07 03:47:06;;;;;;;10.90;9.13;;;;;;;;;;5095032;28;20811;-64
2022/11/07 03:49:33;;;;;;;12.63;8.83;;;;;;;;;;5095036;28;20457;-64
2022/11/07 03:52:03;;;;;;;9.50;8.60;;;;;;;;;;5095173;28;20447;-65
2022/11/07 03:54:30;;;;;;;9.83;8.73;;;;;;;;;;5095582;28;20446;-64
2022/11/07 03:57:01;;;;;;;11.93;9.07;;;;;;;;;;5094939;28;20481;-64
2022/11/07 03:59:29;;;;;;;11.20;9.30;;;;;;;;;;5094890;28;20454;-64
2022/11/07 04:01:55;;;;;;;9.60;8.40;;;;;;;;;;5094502;28;20457;-65
2022/11/07 04:04:22;;;;;;;9.67;8.37;;;;;;;;;;5095095;28;20538;-64
2022/11/07 04:06:49;;;;;;;9.60;8.10;;;;;;;;;;5094668;28;20956;-64
2022/11/07 04:09:17;;;;;;;8.90;7.63;;;;;;;;;;5094801;28;20453;-64
2022/11/07 04:17:19;;;;;;;8.40;7.50;;;;;;;;;;5094576;28;20469;-64
2022/11/07 04:19:47;;;;;;;9.30;8.40;;;;;;;;;;5094668;28;20482;-64
2022/11/07 04:22:14;;;;;;;8.43;7.60;;;;;;;;;;5094508;28;20483;-64
2022/11/07 04:24:44;;;;;;;8.47;6.90;;;;;;;;;;5094386;28;20453;-64
2022/11/07 04:30:23;;;;;;;9.73;8.80;;;;;;;;;;5052137;28;20444;-64
2022/11/07 04:32:53;;;;;;;7.90;7.10;;;;;;;;;;5087596;28;20490;-64
2022/11/07 04:35:20;;;;;;;8.03;6.90;;;;;;;;;;5094006;28;20456;-64
2022/11/07 04:37:48;;;;;;;8.00;7.07;;;;;;;;;;5094238;28;20483;-64
2022/11/07 04:40:16;;;;;;;6.87;6.27;;;;;;;;;;5094125;28;20485;-64
2022/11/07 04:42:43;;;;;;;8.53;7.17;;;;;;;;;;5094146;28;20887;-64
2022/11/07 04:45:11;;;;;;;7.20;6.50;;;;;;;;;;5094141;28;20867;-64
2022/11/07 04:47:38;;;;;;;6.80;6.20;;;;;;;;;;5093915;28;20475;-64
2022/11/07 04:50:05;;;;;;;6.73;6.13;;;;;;;;;;5093843;28;20450;-64
2022/11/07 04:52:34;;;;;;;7.93;6.40;;;;;;;;;;5094027;28;20964;-65
2022/11/07 04:55:01;;;;;;;7.50;6.03;;;;;;;;;;5094137;28;20937;-64
2022/11/07 04:57:29;;;;;;;7.10;6.40;;;;;;;;;;5093724;28;20484;-64
2022/11/07 04:59:56;;;;;;;6.50;5.90;;;;;;;;;;5093723;28;20545;-64
2022/11/07 05:02:24;;;;;;;6.33;5.83;;;;;;;;;;5093484;28;20505;-65
2022/11/07 05:04:51;;;;;;;7.50;6.40;;;;;;;;;;5093792;28;20451;-64
2022/11/07 05:07:19;;;;;;;7.23;6.60;;;;;;;;;;5093750;28;20555;-64
2022/11/07 05:09:45;;;;;;;6.80;6.20;;;;;;;;;;5093638;28;20473;-64
2022/11/07 05:12:12;;;;;;;6.63;6.03;;;;;;;;;;5093420;28;20492;-64
2022/11/07 05:14:41;;;;;;;7.60;6.80;;;;;;;;;;5092912;28;20473;-64
2022/11/07 05:17:07;;;;;;;7.70;5.60;;;;;;;;;;5093221;28;20470;-64
2022/11/07 05:19:34;;;;;;;6.43;5.83;;;;;;;;;;5093352;28;20485;-65
2022/11/07 05:24:46;;;;;;;5.93;5.43;;;;;;;;;;5093412;28;20588;-64
2022/11/07 05:27:17;;;;;;;6.07;5.57;;;;;;;;;;5093089;28;20458;-64
2022/11/07 05:29:45;;;;;;;7.37;6.40;;;;;;;;;;5093177;28;20454;-64
2022/11/07 05:32:12;;;;;;;6.50;5.63;;;;;;;;;;5093287;28;20538;-64
2022/11/07 05:34:40;;;;;;;5.83;5.23;;;;;;;;;;5093343;28;20478;-64
2022/11/07 05:37:08;;;;;;;8.20;6.37;;;;;;;;;;5093222;28;20837;-64
2022/11/07 05:39:35;;;;;;;6.40;5.80;;;;;;;;;;5093011;28;20458;-64
2022/11/07 05:42:02;;;;;;;6.60;5.90;;;;;;;;;;5092865;28;20539;-64
2022/11/07 05:44:30;;;;;;;5.53;5.13;;;;;;;;;;5093075;28;20447;-65
2022/11/07 05:46:59;;;;;;;6.87;6.27;;;;;;;;;;5092747;28;20505;-64
2022/11/07 05:49:26;;;;;;;5.23;4.83;;;;;;;;;;5092957;28;20930;-64
2022/11/07 05:51:53;;;;;;;7.03;6.17;;;;;;;;;;5092770;28;20554;-64
2022/11/07 05:54:20;;;;;;;5.50;5.10;;;;;;;;;;5093078;28;20443;-65
2022/11/07 05:56:47;;;;;;;5.80;5.30;;;;;;;;;;5093059;28;20644;-64
2022/11/07 05:59:14;;;;;;;6.57;5.50;;;;;;;;;;5092850;28;20478;-64
2022/11/07 06:01:41;;;;;;;5.90;5.30;;;;;;;;;;5092880;28;20857;-65
2022/11/07 06:04:09;;;;;;;6.67;6.07;;;;;;;;;;5092683;28;20451;-64
2022/11/07 06:06:36;;;;;;;5.00;4.63;;;;;;;;;;5092728;28;20457;-64
2022/11/07 06:09:03;;;;;;;5.47;5.00;;;;;;;;;;5092754;28;20534;-65
2022/11/07 06:11:31;;;;;;;5.83;5.33;;;;;;;;;;5092603;28;20953;-65
2022/11/07 06:13:58;;;;;;;6.53;5.17;;;;;;;;;;5092859;28;20541;-64
2022/11/07 06:16:25;;;;;;;4.87;4.50;;;;;;;;;;5092586;28;20486;-64
2022/11/07 06:18:52;;;;;;;5.27;4.87;;;;;;;;;;5092687;28;20573;-63
2022/11/07 06:21:20;;;;;;;5.80;4.63;;;;;;;;;;5092597;28;20442;-62
2022/11/07 06:23:47;;;;;;;5.20;4.70;;;;;;;;;;5092477;28;20893;-63
2022/11/07 06:26:14;;;;;;;5.70;4.67;;;;;;;;;;5096643;28;20451;-63
2022/11/07 06:28:41;;;;;;;5.70;5.20;;;;;;;;;;5096530;28;20447;-63
2022/11/07 06:31:08;;;;;;;6.10;5.20;;;;;;;;;;5096473;28;20809;-63
2022/11/07 06:33:38;;;;;;;5.37;4.87;;;;;;;;;;5096349;28;20530;-63
2022/11/07 06:36:06;;;;;;;11.50;5.17;;;;;;;;;;5096370;28;20969;-63
2022/11/07 06:38:34;;;;;;;6.07;4.70;;;;;;;;;;5096344;28;20965;-63
2022/11/07 06:41:05;;;;;;;6.20;5.00;;;;;;;;;;5096404;28;20469;-63
2022/11/07 06:43:34;;;;;;;7.20;4.43;;;;;;;;;;5096358;28;20454;-63
2022/11/07 06:46:02;;;;;;;5.13;4.73;;;;;;;;;;5096186;28;20486;-63
2022/11/07 06:48:29;;;;;;;4.60;4.20;;;;;;;;;;5095978;28;20830;-63
2022/11/07 06:50:59;;;;;;;4.90;3.90;;;;;;;;;;5096029;28;20451;-63
2022/11/07 06:53:26;;;;;;;4.00;3.70;;;;;;;;;;5095999;28;20447;-63
2022/11/07 06:55:58;;;;;;;4.40;4.10;;;;;;;;;;5095872;28;20485;-63
2022/11/07 06:58:25;;;;;;;7.13;4.93;;;;;;;;;;5095973;28;20479;-63
2022/11/07 07:00:52;;;;;;;4.57;4.17;;;;;;;;;;5095963;28;20453;-64
2022/11/07 07:03:18;;;;;;;4.30;4.00;;;;;;;;;;5095699;28;20889;-64
2022/11/07 07:05:45;;;;;;;6.00;3.37;;;;;;;;;;5095873;28;20446;-64
2022/11/07 07:08:13;;;;;;;3.33;3.13;;;;;;;;;;5095927;28;20572;-64
2022/11/07 07:10:42;;;;;;;8.50;3.80;;;;;;;;;;5095780;28;20458;-64
2022/11/07 07:13:10;;;;;;;3.90;3.60;;;;;;;;;;5095808;28;20889;-63
2022/11/07 07:15:37;;;;;;;3.90;3.60;;;;;;;;;;5095529;28;20447;-64
2022/11/07 07:18:04;;;;;;;4.97;3.60;;;;;;;;;;5095349;28;20531;-63
2022/11/07 07:20:31;;;;;;;4.67;4.00;;;;;;;;;;5095659;28;20442;-64
2022/11/07 07:22:58;;;;;;;3.13;2.93;;;;;;;;;;5095551;28;20450;-64
2022/11/07 07:25:25;;;;;;;3.63;3.33;;;;;;;;;;5095262;28;20453;-64
2022/11/07 07:27:52;;;;;;;42.63;4.40;;;;;;;;;;5095357;28;20953;-64
2022/11/07 07:30:20;;;;;;;3.90;3.60;;;;;;;;;;5095388;28;21033;-64
2022/11/07 07:32:47;;;;;;;3.77;3.43;;;;;;;;;;5095289;28;20938;-63
2022/11/07 07:35:14;;;;;;;3.90;3.17;;;;;;;;;;5095473;28;20522;-63
2022/11/07 07:37:41;;;;;;;4.23;3.10;;;;;;;;;;5094621;28;20539;-64
2022/11/07 07:40:09;;;;;;;3.30;3.10;;;;;;;;;;5095188;28;20451;-63
2022/11/07 07:42:42;;;;;;;3.87;3.57;;;;;;;;;;5095106;28;20458;-64
2022/11/07 07:45:11;;;;;;;3.57;3.27;;;;;;;;;;5095301;28;20450;-64
2022/11/07 07:47:39;;;;;;;3.70;3.50;;;;;;;;;;5094881;28;20478;-64
2022/11/07 07:50:07;;;;;;;6.53;3.60;;;;;;;;;;5095098;28;20545;-64
2022/11/07 07:52:34;;;;;;;4.70;3.37;;;;;;;;;;5095051;28;20879;-64
2022/11/07 07:55:02;;;;;;;4.03;3.65;;;;;;;;;;5094981;28;20452;-64
2022/11/07 07:57:29;;;;;;;3.33;3.13;;;;;;;;;;5094801;28;20199;-64
2022/11/07 07:59:56;;;;;;;3.23;2.97;;;;;;;;;;5094927;28;20489;-64
2022/11/07 08:02:23;;;;;;;3.73;3.37;;;;;;;;;;5094850;28;20451;-64
2022/11/07 08:04:51;;;;;;;3.77;3.30;;;;;;;;;;5094821;28;20451;-64
2022/11/07 08:07:18;;;;;;;3.43;3.23;;;;;;;;;;5094713;28;20538;-64
2022/11/07 08:09:45;;;;;;;3.40;2.87;;;;;;;;;;5094783;28;20950;-63
2022/11/07 08:12:11;;;;;;;4.07;3.70;;;;;;;;;;5094821;28;20508;-64
2022/11/07 08:14:38;;;;;;;3.13;2.93;;;;;;;;;;5094922;28;20469;-64
2022/11/07 08:17:05;;;;;;;3.30;3.00;;;;;;;;;;5094573;28;20447;-64
2022/11/07 08:19:32;;;;;;;3.70;3.40;;;;;;;;;;5090192;28;20475;-63
2022/11/07 08:22:00;;;;;;;3.27;2.97;;;;;;;;;;5082953;28;20825;-63
2022/11/07 08:24:27;;;;;;;22.27;4.07;;;;;;;;;;5075330;28;20455;-63
2022/11/07 08:26:54;;;;;;;3.57;2.60;;;;;;;;;;5076756;28;20456;-61
2022/11/07 08:29:21;;;;;;;4.57;3.00;;;;;;;;;;5077567;28;20542;-62
2022/11/07 08:31:49;;;;;;;2.97;2.70;;;;;;;;;;5088404;28;20860;-64
2022/11/07 08:34:17;;;;;;;6.73;4.10;;;;;;;;;;5073743;28;20927;-64
2022/11/07 08:36:44;;;;;;;3.80;3.10;;;;;;;;;;5091869;28;20470;-62
2022/11/07 08:39:12;;;;;;;2.93;2.67;;;;;;;;;;5080673;28;20481;-62
2022/11/07 08:41:39;;;;;;;2.53;2.33;;;;;;;;;;5074054;28;20545;-62
2022/11/07 08:44:07;;;;;;;3.70;3.23;;;;;;;;;;5076967;28;20966;-67
2022/11/07 08:46:34;;;;;;;4.03;3.00;;;;;;;;;;5073223;28;20495;-61
2022/11/07 08:49:01;;;;;;;4.40;3.00;;;;;;;;;;5072103;28;20467;-59
2022/11/07 08:51:28;;;;;;;2.80;2.60;;;;;;;;;;5076446;28;20456;-64
2022/11/07 08:53:55;;;;;;;2.43;2.33;;;;;;;;;;5085534;28;20884;-61
2022/11/07 08:56:23;;;;;;;6.40;2.67;;;;;;;;;;5093989;28;20466;-59
2022/11/07 08:58:50;;;;;;;3.43;3.23;;;;;;;;;;5074362;28;20473;-65
2022/11/07 09:01:17;;;;;;;3.13;2.20;;;;;;;;;;5072752;28;20453;-65
2022/11/07 09:03:44;;;;;;;2.93;2.30;;;;;;;;;;5072584;28;20458;-67
2022/11/07 09:06:11;;;;;;;2.50;2.17;;;;;;;;;;5072764;28;20922;-60
2022/11/07 09:08:39;;;;;;;3.10;2.30;;;;;;;;;;5073327;28;20763;-65
2022/11/07 09:11:07;;;;;;;2.10;2.00;;;;;;;;;;5079040;28;20452;-66
2022/11/07 09:13:35;;;;;;;2.33;1.80;;;;;;;;;;5076464;28;20455;-66
2022/11/07 09:16:03;;;;;;;2.53;2.33;;;;;;;;;;5091209;28;20802;-63
2022/11/07 09:18:30;;;;;;;2.40;1.80;;;;;;;;;;5073053;28;20841;-62
2022/11/07 09:20:57;;;;;;;3.47;2.00;;;;;;;;;;5072794;28;20531;-59
2022/11/07 09:23:25;;;;;;;2.67;2.47;;;;;;;;;;5073283;28;20810;-68
2022/11/07 09:25:51;;;;;;;8.17;4.00;;;;;;;;;;5085965;28;20544;-59
2022/11/07 09:28:18;;;;;;;2.10;1.90;;;;;;;;;;5078671;28;20525;-61
2022/11/07 09:30:47;;;;;;;4.63;2.10;;;;;;;;;;5081740;28;20473;-61
2022/11/07 09:33:14;;;;;;;2.20;2.10;;;;;;;;;;5084907;28;20458;-62
2022/11/07 09:35:40;;;;;;;2.90;2.23;;;;;;;;;;5081656;28;20964;-67
2022/11/07 09:38:07;;;;;;;2.47;2.07;;;;;;;;;;5087549;28;20453;-66
2022/11/07 09:40:41;;;;;;;2.37;1.93;;;;;;;;;;5085813;28;20914;-67
2022/11/07 09:43:15;;;;;;;1.93;1.83;;;;;;;;;;5087025;28;21024;-62
2022/11/07 09:45:50;;;;;;;3.07;2.43;;;;;;;;;;5077544;28;20443;-62
2022/11/07 09:48:21;;;;;;;4.30;2.10;;;;;;;;;;5072454;28;20479;-64
2022/11/07 09:50:49;;;;;;;2.33;2.13;;;;;;;;;;5079341;28;20491;-62
2022/11/07 09:53:18;;;;;;;4.23;2.43;;;;;;;;;;5082250;28;20537;-62
2022/11/07 09:55:49;;;;;;;3.43;2.53;;;;;;;;;;5086728;28;20959;-63
2022/11/07 09:58:21;;;;;;;4.80;2.33;;;;;;;;;;5071541;28;20948;-63
2022/11/07 10:00:48;;;;;;;2.30;2.10;;;;;;;;;;5081180;28;20451;-63
2022/11/07 10:03:15;;;;;;;2.90;2.10;;;;;;;;;;5078658;28;20534;-61
2022/11/07 10:05:47;;;;;;;3.43;2.70;;;;;;;;;;5076316;28;20458;-67
2022/11/07 10:08:17;;;;;;;2.50;2.30;;;;;;;;;;5078630;28;20968;-63
2022/11/07 10:10:46;;;;;;;2.70;2.07;;;;;;;;;;5072634;28;20822;-61
2022/11/07 10:13:43;;;;;;;4.00;3.03;;;;;;;;;;5083770;28;20452;-61
2022/11/07 10:16:13;;;;;;;2.40;2.20;;;;;;;;;;5086835;28;21017;-60
2022/11/07 10:18:51;;;;;;;2.77;2.57;;;;;;;;;;5083442;28;21037;-60
2022/11/07 10:21:23;;;;;;;3.47;1.90;;;;;;;;;;5071990;28;20459;-60
2022/11/07 10:24:00;;;;;;;4.50;2.10;;;;;;;;;;5072444;28;20462;-62
2022/11/07 10:26:28;;;;;;;2.43;1.77;;;;;;;;;;5078851;28;20539;-67
2022/11/07 10:28:58;;;;;;;4.10;1.90;;;;;;;;;;5090320;28;20451;-63
2022/11/07 10:31:28;;;;;;;2.30;2.10;;;;;;;;;;5071985;28;20529;-59
2022/11/07 10:33:57;;;;;;;2.33;2.13;;;;;;;;;;5071728;28;20466;-66
2022/11/07 10:36:26;;;;;;;1.97;1.63;;;;;;;;;;5074375;28;20458;-59
2022/11/07 10:38:53;;;;;;;2.43;1.80;;;;;;;;;;5071981;28;20550;-59
2022/11/07 10:41:24;;;;;;;2.10;2.00;;;;;;;;;;5072355;28;20456;-59
2022/11/07 10:43:53;;;;;;;2.20;2.00;;;;;;;;;;5073417;28;20454;-60
2022/11/07 10:46:21;;;;;;;9.63;2.07;;;;;;;;;;5092190;28;20895;-61
2022/11/07 10:48:56;;;;;;;2.53;2.03;;;;;;;;;;5077152;28;20452;-60
2022/11/07 10:51:34;;;;;;;3.00;2.33;;;;;;;;;;5072254;28;20455;-62
2022/11/07 10:54:01;;;;;;;1.70;1.60;;;;;;;;;;5071762;28;20450;-62
2022/11/07 10:56:29;;;;;;;2.03;1.93;;;;;;;;;;5072022;28;20464;-62
2022/11/07 10:58:56;;;;;;;2.30;2.00;;;;;;;;;;5078137;28;20789;-60
2022/11/07 11:01:26;;;;;;;2.10;1.87;;;;;;;;;;5074215;28;20455;-67
2022/11/07 11:03:53;;;;;;;2.13;1.83;;;;;;;;;;5080845;28;20449;-64
2022/11/07 11:06:23;;;;;;;2.17;1.63;;;;;;;;;;5092229;28;20451;-65
2022/11/07 11:08:52;;;;;;;1.80;1.70;;;;;;;;;;5076608;28;20562;-64
2022/11/07 11:11:25;;;;;;;2.50;2.30;;;;;;;;;;5072510;28;20448;-61
2022/11/07 11:14:01;;;;;;;2.93;2.23;;;;;;;;;;5075663;28;20848;-61
2022/11/07 11:16:29;;;;;;;2.90;2.00;;;;;;;;;;5076537;28;20823;-62
2022/11/07 11:18:57;;;;;;;2.57;1.53;;;;;;;;;;5086699;28;20518;-61
2022/11/07 11:21:24;;;;;;;3.10;1.83;;;;;;;;;;5090950;28;20551;-62
2022/11/07 11:23:53;;;;;;;4.20;2.20;;;;;;;;;;5083304;28;20538;-63
2022/11/07 11:26:25;;;;;;;3.10;1.90;;;;;;;;;;5074732;28;20467;-61
2022/11/07 11:28:55;;;;;;;1.70;1.60;;;;;;;;;;5092294;28;20455;-64
2022/11/07 11:31:26;;;;;;;2.30;1.87;;;;;;;;;;5077547;28;20450;-64
2022/11/07 11:33:55;;;;;;;3.27;1.53;;;;;;;;;;5074294;28;20450;-65
2022/11/07 11:36:24;;;;;;;5.93;1.87;;;;;;;;;;5078610;28;20458;-62
2022/11/07 11:38:53;;;;;;;1.77;1.43;;;;;;;;;;5083767;28;20454;-60
2022/11/07 11:41:22;;;;;;;3.20;1.80;;;;;;;;;;5081585;28;20486;-59
2022/11/07 11:43:51;;;;;;;3.83;2.07;;;;;;;;;;5089400;28;20771;-59
2022/11/07 11:46:22;;;;;;;4.10;2.00;;;;;;;;;;5083534;28;20888;-63
2022/11/07 11:48:51;;;;;;;4.83;1.83;;;;;;;;;;5085177;28;20487;-62
2022/11/07 11:51:20;;;;;;;6.93;1.60;;;;;;;;;;5081945;28;20457;-63
2022/11/07 11:53:47;;;;;;;1.70;1.50;;;;;;;;;;5094997;28;20457;-59
2022/11/07 11:56:25;;;;;;;5.80;1.90;;;;;;;;;;5107094;28;20442;-59
2022/11/07 11:58:55;;;;;;;4.27;1.80;;;;;;;;;;5094622;28;20467;-59
2022/11/07 12:01:25;;;;;;;7.60;6.33;;;;;;;;;;5082013;28;20950;-59
2022/11/07 12:03:59;;;;;;;7.60;2.80;;;;;;;;;;5093615;28;20451;-59
2022/11/07 12:06:28;;;;;;;3.40;2.20;;;;;;;;;;5093525;28;20477;-58
2022/11/07 12:09:03;;;;;;;5.40;1.70;;;;;;;;;;5094665;28;20456;-59
2022/11/07 12:11:36;;;;;;;1.30;1.20;;;;;;;;;;5093756;28;20520;-59
2022/11/07 12:14:07;;;;;;;2.80;1.50;;;;;;;;;;5094080;28;20446;-62
2022/11/07 12:16:38;;;;;;;1.87;1.37;;;;;;;;;;5094579;28;20452;-66
2022/11/07 12:19:11;;;;;;;2.03;1.27;;;;;;;;;;5094468;28;20444;-65
2022/11/07 12:21:40;;;;;;;3.27;1.40;;;;;;;;;;5094385;28;20462;-61
2022/11/07 12:24:15;;;;;;;1.90;1.80;;;;;;;;;;5093991;28;20453;-61
2022/11/07 12:26:47;;;;;;;3.13;1.40;;;;;;;;;;5094135;28;20545;-61
2022/11/07 12:29:20;;;;;;;1.80;1.70;;;;;;;;;;5073622;28;20541;-61
2022/11/07 12:31:54;;;;;;;6.93;1.70;;;;;;;;;;5073804;28;20446;-60
2022/11/07 12:34:27;;;;;;;5.47;1.60;;;;;;;;;;5073629;28;20457;-62
2022/11/07 12:37:01;;;;;;;3.17;2.00;;;;;;;;;;5073966;28;20550;-61
2022/11/07 12:39:47;;;;;;;3.67;1.40;;;;;;;;;;5073566;28;20511;-61
2022/11/07 12:42:20;;;;;;;3.20;1.50;;;;;;;;;;5073825;28;20552;-60
2022/11/07 12:44:56;;;;;;;2.20;1.43;;;;;;;;;;5072412;28;20442;-63
2022/11/07 12:47:30;;;;;;;2.57;1.73;;;;;;;;;;5072894;28;20494;-62
2022/11/07 12:50:04;;;;;;;2.00;1.50;;;;;;;;;;5073807;28;20458;-62
2022/11/07 12:52:38;;;;;;;2.33;1.50;;;;;;;;;;5073726;28;20533;-61
2022/11/07 12:55:15;;;;;;;1.90;1.47;;;;;;;;;;5073425;28;20454;-64
2022/11/07 12:57:43;;;;;;;3.03;1.73;;;;;;;;;;5073332;28;20442;-63
2022/11/07 13:00:16;;;;;;;3.00;1.87;;;;;;;;;;5073129;28;21005;-62
2022/11/07 13:02:49;;;;;;;2.20;1.73;;;;;;;;;;5073420;28;20542;-62
2022/11/07 13:05:20;;;;;;;3.47;2.13;;;;;;;;;;5073279;28;20454;-68
2022/11/07 13:07:48;;;;;;;2.23;1.30;;;;;;;;;;5073340;28;20453;-61
2022/11/07 13:10:18;;;;;;;4.43;1.60;;;;;;;;;;5073542;28;20520;-61
2022/11/07 13:12:51;;;;;;;3.30;1.90;;;;;;;;;;5073300;28;20450;-61
2022/11/07 13:15:18;;;;;;;2.13;1.80;;;;;;;;;;5073059;28;20545;-61
2022/11/07 13:17:46;;;;;;;3.70;1.80;;;;;;;;;;5073098;28;20538;-62
2022/11/07 13:20:27;;;;;;;3.60;1.70;;;;;;;;;;5072883;28;20525;-60
2022/11/07 13:22:54;;;;;;;2.97;1.50;;;;;;;;;;5072975;28;20501;-60
2022/11/07 13:25:26;;;;;;;2.90;1.60;;;;;;;;;;5072595;28;20812;-60
2022/11/07 13:28:11;;;;;;;3.00;1.43;;;;;;;;;;5072843;28;20454;-60
2022/11/07 13:30:40;;;;;;;3.07;1.60;;;;;;;;;;5072800;28;20534;-60
2022/11/07 13:33:07;;;;;;;2.20;1.37;;;;;;;;;;5073026;28;20974;-60
2022/11/07 13:35:36;;;;;;;2.57;1.67;;;;;;;;;;5072578;28;20996;-60
2022/11/07 13:38:04;;;;;;;6.37;5.70;;;;;;;;;;5072368;28;20447;-61
2022/11/07 13:40:33;;;;;;;2.27;2.03;;;;;;;;;;5072297;28;20893;-62
2022/11/07 13:43:02;;;;;;;3.00;1.47;;;;;;;;;;5072448;28;20830;-62
2022/11/07 13:45:33;;;;;;;3.80;1.73;;;;;;;;;;5072558;28;20466;-62
2022/11/07 13:48:03;;;;;;;9.90;1.77;;;;;;;;;;5072492;28;20472;-60
2022/11/07 13:50:35;;;;;;;2.90;1.73;;;;;;;;;;5072697;28;20561;-61
2022/11/07 13:53:05;;;;;;;3.43;1.60;;;;;;;;;;5072420;28;20520;-61
2022/11/07 13:55:35;;;;;;;2.20;1.60;;;;;;;;;;5072305;28;20538;-61
2022/11/07 13:58:04;;;;;;;2.77;1.87;;;;;;;;;;5072528;28;20454;-61
2022/11/07 14:00:33;;;;;;;2.13;1.90;;;;;;;;;;5072729;28;20564;-61
2022/11/07 14:03:01;;;;;;;5.67;1.60;;;;;;;;;;5072525;28;20450;-60
2022/11/07 14:05:33;;;;;;;5.10;1.70;;;;;;;;;;5072827;28;20456;-61
2022/11/07 14:08:03;;;;;;;2.20;2.00;;;;;;;;;;5072644;28;20452;-61
2022/11/07 14:10:31;;;;;;;3.70;2.23;;;;;;;;;;5072599;28;20508;-61
2022/11/07 14:13:02;;;;;;;4.20;1.90;;;;;;;;;;5072695;28;20536;-61
2022/11/07 14:15:29;;;;;;;3.60;1.80;;;;;;;;;;5072650;28;20451;-61
2022/11/07 14:17:57;;;;;;;3.37;1.63;;;;;;;;;;5072502;28;20546;-61
2022/11/07 14:20:25;;;;;;;2.43;1.70;;;;;;;;;;5072300;28;20486;-61
2022/11/07 14:22:53;;;;;;;4.23;2.10;;;;;;;;;;5072405;28;20451;-61
2022/11/07 14:25:26;;;;;;;5.33;2.20;;;;;;;;;;5072328;28;20952;-61
2022/11/07 14:27:53;;;;;;;2.40;2.20;;;;;;;;;;5072469;28;20452;-61
2022/11/07 14:30:21;;;;;;;2.90;2.00;;;;;;;;;;5072506;28;20470;-61
2022/11/07 14:32:48;;;;;;;1.70;1.57;;;;;;;;;;5072388;28;20555;-60
2022/11/07 14:35:18;;;;;;;2.30;1.53;;;;;;;;;;5072559;28;20541;-61
2022/11/07 14:37:46;;;;;;;2.67;1.87;;;;;;;;;;5072460;28;20502;-60
2022/11/07 14:40:13;;;;;;;2.90;1.77;;;;;;;;;;5072309;28;20479;-61
2022/11/07 14:42:41;;;;;;;3.60;1.77;;;;;;;;;;5072285;28;20874;-61
2022/11/07 14:45:12;;;;;;;4.67;2.23;;;;;;;;;;5072494;28;20569;-61
2022/11/07 14:47:39;;;;;;;4.00;1.97;;;;;;;;;;5074827;28;20505;-61
2022/11/07 14:50:06;;;;;;;2.87;2.20;;;;;;;;;;5075981;28;20537;-61
2022/11/07 14:52:35;;;;;;;2.13;1.93;;;;;;;;;;5076248;28;20450;-61
2022/11/07 14:55:07;;;;;;;3.57;2.40;;;;;;;;;;5075935;28;20541;-61
2022/11/07 14:57:35;;;;;;;2.90;2.30;;;;;;;;;;5075687;28;20499;-61
2022/11/07 15:00:05;;;;;;;3.00;2.47;;;;;;;;;;5075649;28;20531;-60